Elkins Park, Pennsylvania
Current Conditions -  °F | °C
As of 10:54 AM on Monday 22 Dec 2014 (Local Time) from KPNE Reporting Station
Broken Clouds Broken Clouds  
Wind Chill: 39°   Ceiling: 2300
Heat Index: 43°   Visibility: 10mi
Dew Point: 30°   Wind: 6mph
Humidity: 60%   Direction: 60°ENE
Pressure: 30.32"   Gusts: NA
Location:  40.08°N, 75.13°W
Report Text: KPNE 221554Z AUTO 06005KT 10SM BKN023 06/M01 A3032 RMK AO2 SLP267 T00611011 TSNO
Loading
Personal Weather Stations






























Interactive Weather Map New forecast layout! Learn more

10-Day Weather Forecast

Advertisements
Track Severe Weather on mobile